createdAt,value
2023-02-02T00:00:00.548Z,0
2023-02-02T00:01:01.034Z,0
2023-02-02T00:02:00.580Z,0
2023-02-02T00:03:01.271Z,0
2023-02-02T00:04:01.357Z,0
2023-02-02T00:05:00.947Z,0
2023-02-02T00:06:00.434Z,0
2023-02-02T00:07:00.915Z,0
2023-02-02T00:08:00.644Z,0
2023-02-02T00:09:00.627Z,0
2023-02-02T00:10:00.436Z,0
2023-02-02T00:11:00.827Z,0
2023-02-02T00:12:00.573Z,0
2023-02-02T00:13:00.537Z,0
2023-02-02T00:14:00.549Z,0
2023-02-02T00:15:00.528Z,0
2023-02-02T00:16:00.921Z,0
2023-02-02T00:17:00.506Z,0
2023-02-02T00:18:00.237Z,0
2023-02-02T00:19:00.738Z,0
2023-02-02T00:20:00.686Z,0
2023-02-02T00:21:00.140Z,0
2023-02-02T00:22:00.419Z,0
2023-02-02T00:23:00.599Z,0
2023-02-02T00:24:00.351Z,0
2023-02-02T00:25:00.582Z,0
2023-02-02T00:26:00.540Z,0
2023-02-02T00:27:00.367Z,0
2023-02-02T00:28:00.555Z,0
2023-02-02T00:29:00.524Z,0
2023-02-02T00:30:00.190Z,0
2023-02-02T00:31:00.442Z,0
2023-02-02T00:32:00.590Z,0
2023-02-02T00:32:59.712Z,0
2023-02-02T00:34:00.428Z,0
2023-02-02T00:35:00.425Z,0
2023-02-02T00:36:00.129Z,0
2023-02-02T00:36:59.585Z,0
2023-02-02T00:37:59.791Z,0
2023-02-02T00:39:00.087Z,0
2023-02-02T00:39:59.761Z,0
2023-02-02T00:40:59.987Z,0
2023-02-02T00:42:00.245Z,0
2023-02-02T00:43:00.190Z,0
2023-02-02T00:43:59.931Z,0
2023-02-02T00:44:59.660Z,0
2023-02-02T00:45:59.608Z,0
2023-02-02T00:47:00.128Z,0
2023-02-02T00:48:00.147Z,0
2023-02-02T00:48:59.585Z,0
2023-02-02T00:50:00.111Z,0
2023-02-02T00:51:00.191Z,0
2023-02-02T00:51:59.803Z,0
2023-02-02T00:53:00.011Z,0
2023-02-02T00:53:59.472Z,0
2023-02-02T00:54:59.473Z,0
2023-02-02T00:55:59.698Z,0
2023-02-02T00:56:59.695Z,0
2023-02-02T00:57:59.399Z,0
2023-02-02T00:58:59.894Z,0
2023-02-02T00:59:59.691Z,0
2023-02-02T01:01:00.147Z,0
2023-02-02T01:02:00.266Z,0
2023-02-02T01:03:00.058Z,0
2023-02-02T01:04:00.078Z,0
2023-02-02T01:04:59.768Z,0
2023-02-02T01:06:00.044Z,0
2023-02-02T01:07:00.285Z,0
2023-02-02T01:07:59.988Z,0
2023-02-02T01:09:00.339Z,0
2023-02-02T01:10:00.180Z,0
2023-02-02T01:10:59.913Z,0
2023-02-02T01:12:00.148Z,0
2023-02-02T01:12:59.604Z,0
2023-02-02T01:13:59.843Z,0
2023-02-02T01:14:59.825Z,0
2023-02-02T01:15:59.812Z,0
2023-02-02T01:16:59.797Z,0
2023-02-02T01:17:59.769Z,0
2023-02-02T01:18:59.736Z,0
2023-02-02T01:19:59.981Z,0
2023-02-02T01:20:59.699Z,0
2023-02-02T01:22:00.259Z,0
2023-02-02T01:22:59.992Z,0
2023-02-02T01:23:59.664Z,0
2023-02-02T01:24:59.645Z,0
2023-02-02T01:25:59.601Z,0
2023-02-02T01:27:00.000Z,0
2023-02-02T01:27:59.569Z,0
2023-02-02T01:28:59.806Z,0
2023-02-02T01:29:59.517Z,0
2023-02-02T01:30:59.732Z,0
2023-02-02T01:32:00.054Z,0
2023-02-02T01:32:59.731Z,0
2023-02-02T01:34:31.256Z,0
2023-02-02T01:34:59.427Z,0
2023-02-02T01:35:59.152Z,0
2023-02-02T01:36:59.673Z,0
2023-02-02T01:37:59.131Z,0
2023-02-02T01:38:59.705Z,0
2023-02-02T01:39:59.606Z,0
2023-02-02T01:40:59.350Z,0
2023-02-02T01:41:59.546Z,0
2023-02-02T01:42:59.277Z,0
2023-02-02T01:43:59.283Z,0
2023-02-02T01:44:59.237Z,0
2023-02-02T01:45:59.716Z,0
2023-02-02T01:46:59.268Z,0
2023-02-02T01:47:59.427Z,0
2023-02-02T01:48:58.924Z,0
2023-02-02T01:49:59.378Z,0
2023-02-02T01:50:59.115Z,0
2023-02-02T01:51:59.111Z,0
2023-02-02T01:52:59.078Z,0
2023-02-02T01:53:59.239Z,0
2023-02-02T01:54:59.364Z,0
2023-02-02T01:55:59.038Z,0
2023-02-02T01:56:59.257Z,0
2023-02-02T01:57:58.985Z,0
2023-02-02T01:58:59.233Z,0
2023-02-02T01:59:59.197Z,0
2023-02-02T02:00:59.029Z,0
2023-02-02T02:01:58.942Z,0
2023-02-02T02:02:58.935Z,0
2023-02-02T02:03:59.118Z,0
2023-02-02T02:04:59.093Z,0
2023-02-02T02:05:59.108Z,0
2023-02-02T02:06:59.069Z,0
2023-02-02T02:07:58.785Z,0
2023-02-02T02:08:58.764Z,0
2023-02-02T02:09:58.786Z,0
2023-02-02T02:10:59.034Z,0
2023-02-02T02:11:58.777Z,0
2023-02-02T02:12:58.677Z,0
2023-02-02T02:13:58.658Z,0
2023-02-02T02:14:58.640Z,0
2023-02-02T02:15:58.869Z,0
2023-02-02T02:16:58.660Z,0
2023-02-02T02:17:58.581Z,0
2023-02-02T02:18:58.553Z,0
2023-02-02T02:19:58.553Z,0
2023-02-02T02:20:58.275Z,0
2023-02-02T02:21:58.501Z,0
2023-02-02T02:22:58.222Z,0
2023-02-02T02:23:58.568Z,0
2023-02-02T02:24:58.442Z,0
2023-02-02T02:25:58.190Z,0
2023-02-02T02:26:58.810Z,0
2023-02-02T02:28:00.654Z,0
2023-02-02T02:28:58.379Z,0
2023-02-02T02:29:58.596Z,0
2023-02-02T02:30:58.638Z,0
2023-02-02T02:31:58.842Z,0
2023-02-02T02:32:58.272Z,0
2023-02-02T02:33:58.004Z,0
2023-02-02T02:34:57.984Z,0
2023-02-02T02:35:58.233Z,0
2023-02-02T02:36:58.201Z,0
2023-02-02T02:37:58.186Z,0
2023-02-02T02:38:58.167Z,0
2023-02-02T02:39:58.147Z,0
2023-02-02T02:40:57.895Z,0
2023-02-02T02:41:58.127Z,0
2023-02-02T02:42:58.139Z,0
2023-02-02T02:43:58.089Z,0
2023-02-02T02:44:58.297Z,0
2023-02-02T02:45:58.740Z,0
2023-02-02T02:46:58.777Z,0
2023-02-02T02:47:58.781Z,0
2023-02-02T02:48:58.853Z,0
2023-02-02T02:49:58.205Z,0
2023-02-02T02:50:58.691Z,0
2023-02-02T02:51:58.474Z,0
2023-02-02T02:52:58.662Z,0
2023-02-02T02:53:58.124Z,0
2023-02-02T02:54:58.657Z,0
2023-02-02T02:55:58.856Z,0
2023-02-02T02:56:58.328Z,0
2023-02-02T02:57:58.837Z,0
2023-02-02T02:58:58.590Z,0
2023-02-02T02:59:58.535Z,0
2023-02-02T03:00:58.505Z,0
2023-02-02T03:01:58.850Z,0
2023-02-02T03:02:58.484Z,0
2023-02-02T03:03:58.672Z,0
2023-02-02T03:04:58.906Z,0
2023-02-02T03:05:58.887Z,0
2023-02-02T03:06:58.621Z,0
2023-02-02T03:07:58.826Z,0
2023-02-02T03:08:58.310Z,0
2023-02-02T03:09:58.551Z,0
2023-02-02T03:10:58.771Z,0
2023-02-02T03:11:58.765Z,0
2023-02-02T03:12:58.232Z,0
2023-02-02T03:13:58.778Z,0
2023-02-02T03:14:58.502Z,0
2023-02-02T03:15:58.847Z,0
2023-02-02T03:16:58.417Z,0
2023-02-02T03:17:58.632Z,0
2023-02-02T03:18:58.627Z,0
2023-02-02T03:19:58.340Z,0
2023-02-02T03:20:58.319Z,0
2023-02-02T03:21:58.553Z,0
2023-02-02T03:22:58.300Z,0
2023-02-02T03:23:58.514Z,0
2023-02-02T03:24:58.591Z,0
2023-02-02T03:25:58.591Z,0
2023-02-02T03:26:58.949Z,0
2023-02-02T03:27:58.530Z,0
2023-02-02T03:28:59.025Z,0
2023-02-02T03:29:59.040Z,0
2023-02-02T03:30:59.525Z,0
2023-02-02T03:31:58.741Z,0
2023-02-02T03:49:37.797Z,0
2023-02-02T03:50:37.245Z,0
2023-02-02T03:51:37.003Z,0
2023-02-02T03:52:37.204Z,0
2023-02-02T03:53:37.188Z,0
2023-02-02T03:54:36.936Z,0
2023-02-02T03:55:37.171Z,0
2023-02-02T03:56:37.370Z,0
2023-02-02T03:57:37.375Z,0
2023-02-02T03:58:37.382Z,0
2023-02-02T03:59:37.068Z,0
2023-02-02T04:00:37.053Z,0
2023-02-02T04:01:37.555Z,0
2023-02-02T04:02:37.439Z,0
2023-02-02T04:03:36.975Z,0
2023-02-02T04:04:36.710Z,0
2023-02-02T04:05:37.294Z,0
2023-02-02T04:06:37.206Z,0
2023-02-02T04:07:36.932Z,0
2023-02-02T04:08:36.632Z,0
2023-02-02T04:09:36.866Z,0
2023-02-02T04:10:36.844Z,0
2023-02-02T04:11:38.133Z,0
2023-02-02T04:12:36.805Z,0
2023-02-02T04:13:37.057Z,0
2023-02-02T04:14:37.020Z,0
2023-02-02T04:15:36.739Z,0
2023-02-02T04:16:37.328Z,0
2023-02-02T04:17:36.702Z,0
2023-02-02T04:18:36.952Z,0
2023-02-02T04:19:36.946Z,0
2023-02-02T04:20:37.197Z,0
2023-02-02T04:21:37.542Z,0
2023-02-02T04:22:37.420Z,0
2023-02-02T04:23:36.902Z,0
2023-02-02T04:24:40.096Z,0
2023-02-02T04:25:37.141Z,0
2023-02-02T04:26:37.368Z,0
2023-02-02T04:27:37.085Z,0
2023-02-02T04:28:37.093Z,0
2023-02-02T04:29:37.026Z,0
2023-02-02T04:30:37.237Z,0
2023-02-02T04:31:37.296Z,0
2023-02-02T04:32:36.743Z,0
2023-02-02T04:33:36.486Z,0
2023-02-02T04:34:37.190Z,0
2023-02-02T04:35:36.794Z,0
2023-02-02T04:36:36.888Z,0
2023-02-02T04:37:37.235Z,0
2023-02-02T04:38:37.109Z,0
2023-02-02T04:39:36.824Z,0
2023-02-02T04:40:37.073Z,0
2023-02-02T04:41:36.786Z,0
2023-02-02T04:42:36.798Z,0
2023-02-02T04:43:36.799Z,0
2023-02-02T04:44:36.773Z,0
2023-02-02T04:45:37.227Z,0
2023-02-02T04:46:36.460Z,0
2023-02-02T04:47:36.936Z,0
2023-02-02T04:48:36.661Z,0
2023-02-02T04:49:36.891Z,0
2023-02-02T04:50:36.885Z,0
2023-02-02T04:51:36.361Z,0
2023-02-02T04:52:36.322Z,0
2023-02-02T04:53:36.947Z,0
2023-02-02T04:54:36.532Z,0
2023-02-02T04:55:36.513Z,0
2023-02-02T04:56:36.781Z,0
2023-02-02T04:57:36.491Z,0
2023-02-02T04:58:36.208Z,0
2023-02-02T04:59:36.456Z,0
2023-02-02T05:00:36.449Z,0
2023-02-02T05:01:36.665Z,0
2023-02-02T05:02:36.571Z,0
2023-02-02T05:03:36.628Z,0
2023-02-02T05:04:36.955Z,0
2023-02-02T05:05:36.349Z,0
2023-02-02T05:06:36.061Z,0
2023-02-02T05:07:36.536Z,0
2023-02-02T05:08:36.281Z,0
2023-02-02T05:09:36.627Z,0
2023-02-02T05:10:36.585Z,0
2023-02-02T05:11:36.224Z,0
2023-02-02T05:12:35.928Z,0
2023-02-02T05:13:36.440Z,0
2023-02-02T05:14:36.400Z,0
2023-02-02T05:15:36.118Z,0
2023-02-02T05:16:36.810Z,0
2023-02-02T05:17:36.107Z,0
2023-02-02T05:18:36.072Z,0
2023-02-02T05:19:35.863Z,0
2023-02-02T05:20:36.045Z,0
2023-02-02T05:21:36.275Z,0
2023-02-02T05:22:36.245Z,0
2023-02-02T05:23:35.970Z,0
2023-02-02T05:24:35.694Z,0
2023-02-02T05:25:36.295Z,0
2023-02-02T05:26:36.394Z,0
2023-02-02T05:27:35.904Z,0
2023-02-02T05:28:36.137Z,0
2023-02-02T05:29:36.116Z,0
2023-02-02T05:30:38.433Z,0
2023-02-02T05:31:36.252Z,0
2023-02-02T05:32:35.802Z,0
2023-02-02T05:33:36.038Z,0
2023-02-02T05:34:36.028Z,0
2023-02-02T05:35:35.737Z,0
2023-02-02T05:36:35.973Z,0
2023-02-02T05:37:35.771Z,0
2023-02-02T05:38:35.661Z,0
2023-02-02T05:39:35.668Z,0
2023-02-02T05:40:35.648Z,0
2023-02-02T05:41:35.978Z,0
2023-02-02T05:42:35.619Z,0
2023-02-02T05:43:35.878Z,0
2023-02-02T05:44:35.818Z,0
2023-02-02T05:45:35.955Z,0
2023-02-02T05:46:35.518Z,0
2023-02-02T05:47:35.521Z,0
2023-02-02T05:48:35.736Z,0
2023-02-02T05:49:35.471Z,0
2023-02-02T05:50:35.443Z,0
2023-02-02T05:51:35.682Z,0
2023-02-02T05:52:35.410Z,0
2023-02-02T05:53:35.145Z,0
2023-02-02T05:54:35.378Z,0
2023-02-02T05:55:35.368Z,0
2023-02-02T05:56:35.584Z,0
2023-02-02T05:57:35.682Z,0
2023-02-02T05:58:35.604Z,0
2023-02-02T05:59:35.285Z,0
2023-02-02T06:00:35.508Z,0
2023-02-02T06:01:35.494Z,0
2023-02-02T06:02:35.227Z,0
2023-02-02T06:03:35.937Z,0
2023-02-02T06:04:35.503Z,0
2023-02-02T06:05:35.158Z,0
2023-02-02T06:06:34.955Z,0
2023-02-02T06:07:34.924Z,0
2023-02-02T06:08:35.375Z,0
2023-02-02T06:09:35.339Z,0
2023-02-02T06:10:35.328Z,0
2023-02-02T06:11:35.338Z,0
2023-02-02T06:12:35.030Z,0
2023-02-02T06:13:35.573Z,0
2023-02-02T06:14:35.230Z,0
2023-02-02T06:15:35.818Z,4
2023-02-02T06:16:35.201Z,4
2023-02-02T06:17:34.967Z,0
2023-02-02T06:18:34.913Z,0
2023-02-02T06:19:34.887Z,4
2023-02-02T06:20:34.609Z,4
2023-02-02T06:21:34.579Z,0
2023-02-02T06:22:34.831Z,4
2023-02-02T06:23:35.064Z,4
2023-02-02T06:24:35.046Z,8
2023-02-02T06:25:34.763Z,8
2023-02-02T06:26:34.942Z,8
2023-02-02T06:27:34.732Z,8
2023-02-02T06:28:35.652Z,12
2023-02-02T06:29:35.038Z,12
2023-02-02T06:30:34.879Z,16
2023-02-02T06:31:35.320Z,16
2023-02-02T06:32:34.648Z,20
2023-02-02T06:33:34.860Z,20
2023-02-02T06:34:34.837Z,24
2023-02-02T06:35:35.003Z,32
2023-02-02T06:36:34.872Z,40
2023-02-02T06:37:37.566Z,40
2023-02-02T06:38:34.788Z,44
2023-02-02T06:39:34.484Z,56
2023-02-02T06:40:34.223Z,64
2023-02-02T06:41:34.483Z,76
2023-02-02T06:42:34.710Z,84
2023-02-02T06:43:34.693Z,96
2023-02-02T06:44:34.394Z,112
2023-02-02T06:45:34.909Z,120
2023-02-02T06:46:34.763Z,132
2023-02-02T06:47:34.635Z,144
2023-02-02T06:48:34.638Z,168
2023-02-02T06:49:34.045Z,180
2023-02-02T06:50:34.042Z,212
2023-02-02T06:51:34.520Z,224
2023-02-02T06:52:34.506Z,244
2023-02-02T06:53:34.229Z,260
2023-02-02T06:54:34.203Z,284
2023-02-02T06:55:34.693Z,308
2023-02-02T06:56:33.943Z,308
2023-02-02T06:57:34.272Z,328
2023-02-02T06:58:34.390Z,340
2023-02-02T06:59:34.917Z,340
2023-02-02T07:00:35.113Z,364
2023-02-02T07:01:35.245Z,380
2023-02-02T07:02:35.062Z,360
2023-02-02T07:03:34.376Z,380
2023-02-02T07:04:34.851Z,388
2023-02-02T07:05:37.328Z,388
2023-02-02T07:06:34.670Z,372
2023-02-02T07:07:34.787Z,384
2023-02-02T07:08:34.738Z,416
2023-02-02T07:09:34.487Z,440
2023-02-02T07:11:22.940Z,492
2023-02-02T07:12:34.427Z,520
2023-02-02T07:13:34.872Z,560
2023-02-02T07:14:34.385Z,596
2023-02-02T07:15:34.636Z,656
2023-02-02T07:16:34.629Z,656
2023-02-02T07:17:34.699Z,704
2023-02-02T07:18:34.559Z,708
2023-02-02T07:19:34.324Z,788
2023-02-02T07:20:34.198Z,852
2023-02-02T07:21:34.032Z,924
2023-02-02T07:22:34.492Z,976
2023-02-02T07:23:33.697Z,1012
2023-02-02T07:24:33.980Z,984
2023-02-02T07:25:34.572Z,992
2023-02-02T07:26:34.578Z,960
2023-02-02T07:27:34.393Z,1060
2023-02-02T07:28:34.383Z,1040
2023-02-02T07:29:34.343Z,1104
2023-02-02T07:30:34.312Z,1200
2023-02-02T07:31:37.971Z,1352
2023-02-02T07:32:34.027Z,1412
2023-02-02T07:33:34.373Z,1436
2023-02-02T07:34:33.995Z,1528
2023-02-02T07:35:34.244Z,1628
2023-02-02T07:36:33.454Z,1660
2023-02-02T07:37:34.220Z,1636
2023-02-02T07:38:33.916Z,1756
2023-02-02T07:39:34.181Z,1924
2023-02-02T07:40:33.935Z,1928
2023-02-02T07:41:34.100Z,1972
2023-02-02T07:42:34.355Z,2016
2023-02-02T07:43:34.075Z,2092
2023-02-02T07:44:34.049Z,2112
2023-02-02T07:45:35.207Z,2144
2023-02-02T07:46:34.284Z,2232
2023-02-02T07:47:33.712Z,2100
2023-02-02T07:48:34.227Z,1908
2023-02-02T07:49:34.311Z,1972
2023-02-02T07:50:34.178Z,1964
2023-02-02T07:51:34.211Z,2112
2023-02-02T07:52:34.156Z,2432
2023-02-02T07:53:34.155Z,2368
2023-02-02T07:54:34.119Z,2340
2023-02-02T07:55:34.914Z,2388
2023-02-02T07:56:33.792Z,2616
2023-02-02T07:57:33.780Z,2628
2023-02-02T07:58:33.763Z,2800
2023-02-02T07:59:36.480Z,2748
2023-02-02T08:00:34.164Z,2736
2023-02-02T08:01:34.133Z,2904
2023-02-02T08:02:34.186Z,3000
2023-02-02T08:03:33.660Z,3128
2023-02-02T08:04:33.657Z,3048
2023-02-02T08:05:34.605Z,3272
2023-02-02T08:06:33.692Z,3340
2023-02-02T08:07:33.588Z,3332
2023-02-02T08:08:33.817Z,3532
2023-02-02T08:09:33.803Z,3596
2023-02-02T08:10:33.035Z,3480
2023-02-02T08:11:33.773Z,3676
2023-02-02T08:12:33.784Z,3612
2023-02-02T08:13:33.768Z,3488
2023-02-02T08:14:32.970Z,3248
2023-02-02T08:15:33.805Z,3312
2023-02-02T08:16:33.972Z,3116
2023-02-02T08:17:33.431Z,2964
2023-02-02T08:18:33.379Z,3112
2023-02-02T08:19:33.366Z,3220
2023-02-02T08:20:33.351Z,3132
2023-02-02T08:21:33.709Z,3020
2023-02-02T08:22:33.574Z,2748
2023-02-02T08:23:33.549Z,2840
2023-02-02T08:24:33.528Z,3000
2023-02-02T08:25:34.077Z,3348
2023-02-02T08:26:33.568Z,3576
2023-02-02T08:27:33.231Z,3300
2023-02-02T08:28:33.462Z,3108
2023-02-02T08:29:33.251Z,2792
2023-02-02T08:30:33.386Z,2780
2023-02-02T08:31:33.158Z,2940
2023-02-02T08:32:33.147Z,3060
2023-02-02T08:33:33.293Z,2936
2023-02-02T08:34:33.096Z,3016
2023-02-02T08:35:33.647Z,3188
2023-02-02T08:36:33.082Z,3216
2023-02-02T08:37:33.450Z,3136
2023-02-02T08:38:33.286Z,3128
2023-02-02T08:39:32.752Z,3008
2023-02-02T08:40:33.131Z,3060
2023-02-02T08:41:32.992Z,3044
2023-02-02T08:42:32.954Z,3120
2023-02-02T08:43:33.261Z,3172
2023-02-02T08:46:07.936Z,2488
2023-02-02T08:46:20.484Z,2536
2023-02-02T08:47:18.403Z,2796
2023-02-02T08:48:20.290Z,2940
2023-02-02T08:49:18.048Z,3344
2023-02-02T08:50:18.008Z,3384
2023-02-02T08:51:17.989Z,3472
2023-02-02T08:52:17.702Z,3456
2023-02-02T08:53:18.082Z,3360
2023-02-02T08:54:17.663Z,3508
2023-02-02T08:55:17.655Z,3624
2023-02-02T08:56:17.920Z,3484
2023-02-02T08:57:17.606Z,3180
2023-02-02T08:58:17.597Z,3248
2023-02-02T08:59:17.844Z,3256
2023-02-02T09:00:17.570Z,3252
2023-02-02T09:01:18.099Z,3264
2023-02-02T09:02:18.097Z,3300
2023-02-02T09:03:17.775Z,3136
2023-02-02T09:04:18.467Z,3132
2023-02-02T09:05:18.143Z,3356
2023-02-02T09:06:18.144Z,3252
2023-02-02T09:07:19.849Z,3236
2023-02-02T09:08:18.309Z,3272
2023-02-02T09:09:18.518Z,3480
2023-02-02T09:10:18.049Z,3692
2023-02-02T09:11:17.790Z,4068
2023-02-02T09:12:18.290Z,3704
2023-02-02T09:13:18.312Z,3692
2023-02-02T09:14:17.987Z,3656
2023-02-02T09:15:17.962Z,3476
2023-02-02T09:16:18.505Z,3476
2023-02-02T09:17:17.419Z,3588
2023-02-02T09:18:18.160Z,3656
2023-02-02T09:19:18.164Z,3620
2023-02-02T09:20:20.267Z,3616
2023-02-02T09:21:17.843Z,3752
2023-02-02T09:22:17.578Z,3836
2023-02-02T09:23:17.552Z,3996
2023-02-02T09:24:17.814Z,3928
2023-02-02T09:25:18.233Z,3812
2023-02-02T09:26:17.845Z,4020
2023-02-02T09:27:17.742Z,3900
2023-02-02T09:28:17.976Z,3964
2023-02-02T09:29:17.984Z,3524
2023-02-02T09:30:17.986Z,3392
2023-02-02T09:31:18.198Z,4012
2023-02-02T09:32:18.081Z,4512
2023-02-02T09:33:17.926Z,4484
2023-02-02T09:34:17.410Z,4492
2023-02-02T09:35:17.929Z,4836
2023-02-02T09:36:17.585Z,4796
2023-02-02T09:37:17.554Z,4784
2023-02-02T09:38:18.026Z,4980
2023-02-02T09:39:17.875Z,5120
2023-02-02T09:40:17.517Z,5200
2023-02-02T09:41:17.870Z,5624
2023-02-02T09:42:17.739Z,5680
2023-02-02T09:43:17.795Z,5268
2023-02-02T09:44:17.472Z,5532
2023-02-02T09:45:17.695Z,5324
2023-02-02T09:46:17.747Z,5320
2023-02-02T09:47:17.667Z,5524
2023-02-02T09:48:17.399Z,5588
2023-02-02T09:49:17.113Z,5440
2023-02-02T09:50:17.389Z,5644
2023-02-02T09:51:17.648Z,5416
2023-02-02T09:52:17.551Z,5484
2023-02-02T09:53:17.282Z,5400
2023-02-02T09:54:17.510Z,5080
2023-02-02T09:55:17.566Z,4936
2023-02-02T09:56:17.480Z,5168
2023-02-02T09:57:17.565Z,5504
2023-02-02T09:58:17.450Z,5844
2023-02-02T09:59:29.388Z,5520
2023-02-02T10:00:17.432Z,5404
2023-02-02T10:01:17.097Z,5612
2023-02-02T10:02:17.361Z,5640
2023-02-02T10:03:17.365Z,5628
2023-02-02T10:04:17.059Z,5800
2023-02-02T10:05:18.027Z,5500
2023-02-02T10:06:17.736Z,5344
2023-02-02T10:07:17.986Z,5060
2023-02-02T10:08:36.459Z,5312
2023-02-02T10:09:18.020Z,5364
2023-02-02T10:10:20.320Z,5020
2023-02-02T10:11:18.171Z,4828
2023-02-02T10:12:17.667Z,4796
2023-02-02T10:13:18.235Z,4596
2023-02-02T10:14:17.606Z,4684
2023-02-02T10:15:17.927Z,4660
2023-02-02T10:16:18.411Z,4596
2023-02-02T10:17:17.535Z,4364
2023-02-02T10:18:17.517Z,4484
2023-02-02T10:19:17.793Z,4712
2023-02-02T10:20:17.788Z,4968
2023-02-02T10:21:17.469Z,5044
2023-02-02T10:22:18.141Z,5280
2023-02-02T10:23:17.705Z,5244
2023-02-02T10:24:17.418Z,5460
2023-02-02T10:25:17.706Z,5552
2023-02-02T10:26:17.423Z,5512
2023-02-02T10:27:17.349Z,5332
2023-02-02T10:28:17.344Z,5272
2023-02-02T10:29:17.967Z,5716
2023-02-02T10:30:17.562Z,5996
2023-02-02T10:31:17.985Z,5836
2023-02-02T10:32:17.529Z,5724
2023-02-02T10:33:17.765Z,5760
2023-02-02T10:34:17.514Z,5588
2023-02-02T10:35:21.178Z,5716
2023-02-02T10:36:17.727Z,5952
2023-02-02T10:37:17.715Z,5772
2023-02-02T10:38:17.433Z,5468
2023-02-02T10:39:17.421Z,5564
2023-02-02T10:40:17.947Z,5780
2023-02-02T10:41:17.633Z,5628
2023-02-02T10:42:17.639Z,5776
2023-02-02T10:43:17.604Z,5744
2023-02-02T10:44:17.054Z,5748
2023-02-02T10:45:17.711Z,5552
2023-02-02T10:46:17.735Z,5432
2023-02-02T10:47:17.245Z,5520
2023-02-02T10:48:17.282Z,5556
2023-02-02T10:49:17.336Z,5608
2023-02-02T10:50:17.707Z,5512
2023-02-02T10:51:17.282Z,5756
2023-02-02T10:52:17.515Z,5596
2023-02-02T10:53:17.131Z,5148
2023-02-02T10:54:17.387Z,5164
2023-02-02T10:55:17.002Z,5260
2023-02-02T10:56:17.426Z,5560
2023-02-02T10:57:17.334Z,6284
2023-02-02T10:58:17.307Z,6068
2023-02-02T10:59:17.307Z,5852
2023-02-02T11:00:17.156Z,5796
2023-02-02T11:01:17.547Z,5632
2023-02-02T11:02:27.102Z,5768
2023-02-02T11:03:17.348Z,5636
2023-02-02T11:04:16.965Z,5124
2023-02-02T11:05:16.669Z,5316
2023-02-02T11:06:16.915Z,5388
2023-02-02T11:07:16.824Z,5276
2023-02-02T11:08:16.984Z,4792
2023-02-02T11:09:17.104Z,4440
2023-02-02T11:10:16.834Z,4132
2023-02-02T11:11:16.825Z,3880
2023-02-02T11:12:17.087Z,4208
2023-02-02T11:13:17.040Z,4412
2023-02-02T11:14:16.522Z,4576
2023-02-02T11:15:16.749Z,4832
2023-02-02T11:16:17.312Z,4652
2023-02-02T11:17:17.053Z,4216
2023-02-02T11:18:16.945Z,3908
2023-02-02T11:19:16.917Z,3776
2023-02-02T11:20:16.676Z,3892
2023-02-02T11:21:16.958Z,4028
2023-02-02T11:22:16.872Z,4060
2023-02-02T11:23:16.095Z,4300
2023-02-02T11:24:16.582Z,4624
2023-02-02T11:25:16.851Z,4456
2023-02-02T11:26:16.547Z,4576
2023-02-02T11:27:16.779Z,4692
2023-02-02T11:28:16.539Z,4744
2023-02-02T11:29:16.645Z,5504
2023-02-02T11:30:16.507Z,5492
2023-02-02T11:31:16.866Z,5364
2023-02-02T11:32:16.430Z,5788
2023-02-02T11:33:16.787Z,5324
2023-02-02T11:34:18.320Z,5232
2023-02-02T11:35:16.634Z,4728
2023-02-02T11:36:16.100Z,4804
2023-02-02T11:37:16.587Z,5276
2023-02-02T11:38:16.058Z,5444
2023-02-02T11:39:16.319Z,5304
2023-02-02T11:40:16.559Z,4732
2023-02-02T11:41:16.004Z,4220
2023-02-02T11:42:16.266Z,4800
2023-02-02T11:43:15.976Z,4460
2023-02-02T11:44:16.212Z,4368
2023-02-02T11:45:16.456Z,4816
2023-02-02T11:46:17.433Z,4980
2023-02-02T11:47:16.189Z,4788
2023-02-02T11:48:16.391Z,4928
2023-02-02T11:49:16.482Z,5568
2023-02-02T11:50:16.125Z,5796
2023-02-02T11:51:16.630Z,5568
2023-02-02T11:52:18.846Z,5332
2023-02-02T11:53:16.326Z,5036
2023-02-02T11:54:16.296Z,4336
2023-02-02T11:55:16.314Z,4040
2023-02-02T11:56:16.263Z,3804
2023-02-02T11:57:15.462Z,3960
2023-02-02T11:58:18.880Z,4212
2023-02-02T11:59:16.204Z,4604
2023-02-02T12:00:16.172Z,4608
2023-02-02T12:01:15.884Z,4608
2023-02-02T12:02:16.339Z,4388
2023-02-02T12:03:16.415Z,4728
2023-02-02T12:04:16.101Z,4148
2023-02-02T12:05:16.244Z,3844
2023-02-02T12:06:16.038Z,3676
2023-02-02T12:07:16.056Z,3816
2023-02-02T12:08:15.507Z,4156
2023-02-02T12:09:16.803Z,4380
2023-02-02T12:10:16.561Z,4336
2023-02-02T12:11:16.489Z,4120
2023-02-02T12:12:16.473Z,3760
2023-02-02T12:13:16.756Z,3460
2023-02-02T12:14:16.528Z,3416
2023-02-02T12:15:16.440Z,3744
2023-02-02T12:16:16.990Z,3768
2023-02-02T12:17:16.703Z,3648
2023-02-02T12:18:17.314Z,3572
2023-02-02T12:19:16.613Z,3452
2023-02-02T12:20:16.223Z,4016
2023-02-02T12:21:16.679Z,4096
2023-02-02T12:22:19.025Z,3736
2023-02-02T12:23:16.293Z,3752
2023-02-02T12:24:16.001Z,3548
2023-02-02T12:25:16.567Z,3804
2023-02-02T12:26:16.470Z,4472
2023-02-02T12:27:16.447Z,3944
2023-02-02T12:28:18.499Z,4104
2023-02-02T12:29:15.925Z,4168
2023-02-02T12:30:16.126Z,4120
2023-02-02T12:31:16.750Z,4068
2023-02-02T12:32:15.601Z,4048
2023-02-02T12:33:16.086Z,4264
2023-02-02T12:34:18.822Z,4248
2023-02-02T12:35:15.789Z,3936
2023-02-02T12:36:16.049Z,3664
2023-02-02T12:37:16.401Z,3852
2023-02-02T12:38:16.250Z,3916
2023-02-02T12:39:16.267Z,3612
2023-02-02T12:40:18.156Z,3392
2023-02-02T12:41:16.202Z,3520
2023-02-02T12:42:16.046Z,3616
2023-02-02T12:43:15.901Z,3512
2023-02-02T12:44:15.937Z,3232
2023-02-02T12:45:16.113Z,3248
2023-02-02T12:46:19.632Z,3380
2023-02-02T12:47:15.571Z,3272
2023-02-02T12:48:15.542Z,3168
2023-02-02T12:49:15.545Z,3072
2023-02-02T12:50:15.845Z,3048
2023-02-02T12:51:15.736Z,3204
2023-02-02T12:52:18.610Z,3316
2023-02-02T12:53:18.230Z,3200
2023-02-02T12:54:59.174Z,3124
2023-02-02T12:55:15.713Z,3168
2023-02-02T12:56:15.408Z,3684
2023-02-02T12:57:15.928Z,3744
2023-02-02T12:58:15.622Z,3924
2023-02-02T12:59:15.594Z,3736
2023-02-02T13:00:15.623Z,3600
2023-02-02T13:01:15.350Z,3424
2023-02-02T13:02:15.980Z,3268
2023-02-02T13:03:15.509Z,3324
2023-02-02T13:04:15.516Z,3388
2023-02-02T13:05:15.659Z,3236
2023-02-02T13:06:15.204Z,3476
2023-02-02T13:07:15.464Z,3360
2023-02-02T13:08:15.747Z,3428
2023-02-02T13:09:15.696Z,3160
2023-02-02T13:10:15.772Z,3420
2023-02-02T13:11:15.362Z,3452
2023-02-02T13:12:15.355Z,3256
2023-02-02T13:13:15.626Z,3176
2023-02-02T13:14:15.597Z,3308
2023-02-02T13:15:15.022Z,3376
2023-02-02T13:16:15.325Z,3264
2023-02-02T13:17:15.507Z,3192
2023-02-02T13:18:14.975Z,3260
2023-02-02T13:19:15.226Z,3068
2023-02-02T13:20:15.385Z,2856
2023-02-02T13:21:15.447Z,2864
2023-02-02T13:22:15.455Z,2932
2023-02-02T13:23:15.156Z,2704
2023-02-02T13:24:15.459Z,2672
2023-02-02T13:25:15.420Z,2700
2023-02-02T13:26:15.388Z,2596
2023-02-02T13:27:15.775Z,2580
2023-02-02T13:28:14.786Z,2488
2023-02-02T13:29:15.074Z,2468
2023-02-02T13:30:14.485Z,2536
2023-02-02T13:31:15.761Z,2552
2023-02-02T13:32:15.900Z,2732
2023-02-02T13:33:14.954Z,2696
2023-02-02T13:34:14.674Z,2608
2023-02-02T13:35:14.648Z,2652
2023-02-02T13:36:14.988Z,2624
2023-02-02T13:37:17.025Z,2840
2023-02-02T13:38:14.863Z,2996
2023-02-02T13:39:14.334Z,2944
2023-02-02T13:40:14.912Z,3288
2023-02-02T13:41:15.246Z,3364
2023-02-02T13:42:14.780Z,3416
2023-02-02T13:43:14.756Z,3700
2023-02-02T13:44:14.737Z,3388
2023-02-02T13:45:14.709Z,3052
2023-02-02T13:46:15.059Z,3164
2023-02-02T13:47:14.673Z,3296
2023-02-02T13:48:14.683Z,3172
2023-02-02T13:49:14.958Z,3072
2023-02-02T13:50:14.891Z,3084
2023-02-02T13:51:14.615Z,3280
2023-02-02T13:52:14.354Z,3248
2023-02-02T13:53:14.842Z,3276
2023-02-02T13:54:14.321Z,3484
2023-02-02T13:55:14.802Z,3612
2023-02-02T13:56:14.851Z,3404
2023-02-02T13:57:14.816Z,3420
2023-02-02T13:58:14.765Z,3396
2023-02-02T13:59:14.480Z,3180
2023-02-02T14:00:14.710Z,3124
2023-02-02T14:01:14.737Z,3208
2023-02-02T14:02:14.693Z,3224
2023-02-02T14:03:14.390Z,3256
2023-02-02T14:04:14.617Z,3380
2023-02-02T14:05:14.370Z,3284
2023-02-02T14:06:14.635Z,3140
2023-02-02T14:07:14.367Z,2968
2023-02-02T14:08:14.298Z,2960
2023-02-02T14:09:13.745Z,3072
2023-02-02T14:10:14.038Z,3132
2023-02-02T14:11:13.986Z,2984
2023-02-02T14:12:14.579Z,2884
2023-02-02T14:13:14.232Z,2852
2023-02-02T14:14:14.420Z,2788
2023-02-02T14:15:14.178Z,3132
2023-02-02T14:16:14.688Z,3300